sensor_id;sensor_type;location;lat;lon;timestamp;temperature;humidity
14727;DHT22;7454;51.256;8.176;2022-11-20T00:01:12;-1.20;73.40
14727;DHT22;7454;51.256;8.176;2022-11-20T00:03:39;-1.30;73.30
14727;DHT22;7454;51.256;8.176;2022-11-20T00:06:09;-1.30;73.40
14727;DHT22;7454;51.256;8.176;2022-11-20T00:08:36;-1.30;73.40
14727;DHT22;7454;51.256;8.176;2022-11-20T00:11:03;-1.40;73.30
14727;DHT22;7454;51.256;8.176;2022-11-20T00:13:33;-1.40;73.30
14727;DHT22;7454;51.256;8.176;2022-11-20T00:15:59;-1.40;73.40
14727;DHT22;7454;51.256;8.176;2022-11-20T00:18:26;-1.50;73.30
14727;DHT22;7454;51.256;8.176;2022-11-20T00:20:52;-1.50;73.40
14727;DHT22;7454;51.256;8.176;2022-11-20T00:23:18;-1.60;73.30
14727;DHT22;7454;51.256;8.176;2022-11-20T00:25:44;-1.60;73.20
14727;DHT22;7454;51.256;8.176;2022-11-20T00:28:10;-1.60;73.30
14727;DHT22;7454;51.256;8.176;2022-11-20T00:30:35;-1.60;73.40
14727;DHT22;7454;51.256;8.176;2022-11-20T00:33:01;-1.50;73.50
14727;DHT22;7454;51.256;8.176;2022-11-20T00:35:26;-1.50;73.30
14727;DHT22;7454;51.256;8.176;2022-11-20T00:37:52;-1.60;73.30
14727;DHT22;7454;51.256;8.176;2022-11-20T00:40:18;-1.50;73.40
14727;DHT22;7454;51.256;8.176;2022-11-20T00:42:43;-1.60;73.30
14727;DHT22;7454;51.256;8.176;2022-11-20T00:45:09;-1.40;73.40
14727;DHT22;7454;51.256;8.176;2022-11-20T00:47:35;-1.50;73.30
14727;DHT22;7454;51.256;8.176;2022-11-20T00:50:00;-1.50;73.40
14727;DHT22;7454;51.256;8.176;2022-11-20T00:52:26;-1.50;73.30
14727;DHT22;7454;51.256;8.176;2022-11-20T00:54:51;-1.40;73.30
14727;DHT22;7454;51.256;8.176;2022-11-20T00:57:17;-1.50;73.10
14727;DHT22;7454;51.256;8.176;2022-11-20T00:59:42;-1.50;73.10
14727;DHT22;7454;51.256;8.176;2022-11-20T01:02:08;-1.60;73.10
14727;DHT22;7454;51.256;8.176;2022-11-20T01:04:34;-1.60;73.10
14727;DHT22;7454;51.256;8.176;2022-11-20T01:06:59;-1.70;73.00
14727;DHT22;7454;51.256;8.176;2022-11-20T01:09:25;-1.70;73.20
14727;DHT22;7454;51.256;8.176;2022-11-20T01:11:51;-1.70;73.10
14727;DHT22;7454;51.256;8.176;2022-11-20T01:14:18;-1.70;73.20
14727;DHT22;7454;51.256;8.176;2022-11-20T01:16:48;-1.70;73.20
14727;DHT22;7454;51.256;8.176;2022-11-20T01:19:16;-1.70;73.10
14727;DHT22;7454;51.256;8.176;2022-11-20T01:21:44;-1.80;73.30
14727;DHT22;7454;51.256;8.176;2022-11-20T01:24:12;-1.80;73.20
14727;DHT22;7454;51.256;8.176;2022-11-20T01:26:39;-1.80;73.20
14727;DHT22;7454;51.256;8.176;2022-11-20T01:29:06;-1.80;73.30
14727;DHT22;7454;51.256;8.176;2022-11-20T01:31:38;-1.80;73.30
14727;DHT22;7454;51.256;8.176;2022-11-20T01:34:05;-1.80;73.30
14727;DHT22;7454;51.256;8.176;2022-11-20T01:36:33;-1.70;73.40
14727;DHT22;7454;51.256;8.176;2022-11-20T01:39:02;-1.60;73.50
14727;DHT22;7454;51.256;8.176;2022-11-20T01:41:35;-1.50;73.60
14727;DHT22;7454;51.256;8.176;2022-11-20T01:44:20;-1.60;73.40
14727;DHT22;7454;51.256;8.176;2022-11-20T01:46:58;-1.60;73.40
14727;DHT22;7454;51.256;8.176;2022-11-20T01:52:20;-1.40;73.50
14727;DHT22;7454;51.256;8.176;2022-11-20T01:54:54;-1.40;73.50
14727;DHT22;7454;51.256;8.176;2022-11-20T01:57:22;-1.40;73.50
14727;DHT22;7454;51.256;8.176;2022-11-20T01:59:51;-1.40;73.60
14727;DHT22;7454;51.256;8.176;2022-11-20T02:02:20;-1.30;73.50
14727;DHT22;7454;51.256;8.176;2022-11-20T02:04:46;-1.20;73.70
14727;DHT22;7454;51.256;8.176;2022-11-20T02:07:12;-1.10;73.80
14727;DHT22;7454;51.256;8.176;2022-11-20T02:09:38;-1.20;73.60
14727;DHT22;7454;51.256;8.176;2022-11-20T02:12:04;-1.20;73.70
14727;DHT22;7454;51.256;8.176;2022-11-20T02:14:30;-1.20;73.70
14727;DHT22;7454;51.256;8.176;2022-11-20T02:16:56;-1.20;73.60
14727;DHT22;7454;51.256;8.176;2022-11-20T02:19:23;-1.20;73.80
14727;DHT22;7454;51.256;8.176;2022-11-20T02:24:33;-1.20;73.90
14727;DHT22;7454;51.256;8.176;2022-11-20T02:27:03;-1.20;73.80
14727;DHT22;7454;51.256;8.176;2022-11-20T02:29:39;-1.20;73.90
14727;DHT22;7454;51.256;8.176;2022-11-20T02:32:17;-1.20;73.90
14727;DHT22;7454;51.256;8.176;2022-11-20T02:34:53;-1.20;73.90
14727;DHT22;7454;51.256;8.176;2022-11-20T02:37:19;-1.20;73.80
14727;DHT22;7454;51.256;8.176;2022-11-20T02:39:54;-1.20;74.00
14727;DHT22;7454;51.256;8.176;2022-11-20T02:42:20;-1.20;74.00
14727;DHT22;7454;51.256;8.176;2022-11-20T02:44:45;-1.20;74.00
14727;DHT22;7454;51.256;8.176;2022-11-20T02:47:11;-1.20;74.00
14727;DHT22;7454;51.256;8.176;2022-11-20T02:49:37;-1.20;73.90
14727;DHT22;7454;51.256;8.176;2022-11-20T02:52:02;-1.20;74.10
14727;DHT22;7454;51.256;8.176;2022-11-20T02:54:28;-1.20;74.10
14727;DHT22;7454;51.256;8.176;2022-11-20T02:56:54;-1.10;74.30
14727;DHT22;7454;51.256;8.176;2022-11-20T02:59:19;-1.10;74.00
14727;DHT22;7454;51.256;8.176;2022-11-20T03:01:45;-1.10;74.10
14727;DHT22;7454;51.256;8.176;2022-11-20T03:04:10;-1.00;74.10
14727;DHT22;7454;51.256;8.176;2022-11-20T03:06:36;-1.00;74.10
14727;DHT22;7454;51.256;8.176;2022-11-20T03:09:02;-1.00;74.00
14727;DHT22;7454;51.256;8.176;2022-11-20T03:11:28;-0.90;74.10
14727;DHT22;7454;51.256;8.176;2022-11-20T03:13:54;-1.00;74.00
14727;DHT22;7454;51.256;8.176;2022-11-20T03:16:21;-0.90;74.10
14727;DHT22;7454;51.256;8.176;2022-11-20T03:18:47;-0.90;74.10
14727;DHT22;7454;51.256;8.176;2022-11-20T03:21:14;-0.90;74.10
14727;DHT22;7454;51.256;8.176;2022-11-20T03:23:40;-0.90;74.10
14727;DHT22;7454;51.256;8.176;2022-11-20T03:26:16;-0.80;74.10
14727;DHT22;7454;51.256;8.176;2022-11-20T03:28:47;-0.80;74.10
14727;DHT22;7454;51.256;8.176;2022-11-20T03:31:14;-0.70;74.30
14727;DHT22;7454;51.256;8.176;2022-11-20T03:33:41;-0.70;74.20
14727;DHT22;7454;51.256;8.176;2022-11-20T03:36:07;-0.70;74.20
14727;DHT22;7454;51.256;8.176;2022-11-20T03:38:35;-0.60;74.20
14727;DHT22;7454;51.256;8.176;2022-11-20T03:41:01;-0.60;74.30
14727;DHT22;7454;51.256;8.176;2022-11-20T03:43:28;-0.60;74.40
14727;DHT22;7454;51.256;8.176;2022-11-20T03:45:54;-0.70;74.40
14727;DHT22;7454;51.256;8.176;2022-11-20T03:48:20;-0.70;74.40
14727;DHT22;7454;51.256;8.176;2022-11-20T03:50:46;-0.60;74.50
14727;DHT22;7454;51.256;8.176;2022-11-20T03:53:16;-0.50;74.80
14727;DHT22;7454;51.256;8.176;2022-11-20T03:55:41;-0.50;74.80
14727;DHT22;7454;51.256;8.176;2022-11-20T03:58:07;-0.40;74.90
14727;DHT22;7454;51.256;8.176;2022-11-20T04:00:33;-0.40;75.00
14727;DHT22;7454;51.256;8.176;2022-11-20T04:03:00;-0.30;75.10
14727;DHT22;7454;51.256;8.176;2022-11-20T04:05:26;-0.40;75.10
14727;DHT22;7454;51.256;8.176;2022-11-20T04:07:52;-0.40;75.10
14727;DHT22;7454;51.256;8.176;2022-11-20T04:10:17;-0.40;75.10
14727;DHT22;7454;51.256;8.176;2022-11-20T04:12:43;-0.40;75.10
14727;DHT22;7454;51.256;8.176;2022-11-20T04:15:09;-0.40;75.20
14727;DHT22;7454;51.256;8.176;2022-11-20T04:17:35;-0.40;75.10
14727;DHT22;7454;51.256;8.176;2022-11-20T04:20:00;-0.50;75.10
14727;DHT22;7454;51.256;8.176;2022-11-20T04:22:26;-0.40;75.10
14727;DHT22;7454;51.256;8.176;2022-11-20T04:24:52;-0.50;75.20
14727;DHT22;7454;51.256;8.176;2022-11-20T04:27:18;-0.40;75.30
14727;DHT22;7454;51.256;8.176;2022-11-20T04:29:43;-0.40;75.30
14727;DHT22;7454;51.256;8.176;2022-11-20T04:32:09;-0.40;75.40
14727;DHT22;7454;51.256;8.176;2022-11-20T04:34:34;-0.40;75.40
14727;DHT22;7454;51.256;8.176;2022-11-20T04:37:00;-0.40;75.60
14727;DHT22;7454;51.256;8.176;2022-11-20T04:39:26;-0.40;75.60
14727;DHT22;7454;51.256;8.176;2022-11-20T04:41:52;-0.40;75.60
14727;DHT22;7454;51.256;8.176;2022-11-20T04:44:37;-0.30;75.60
14727;DHT22;7454;51.256;8.176;2022-11-20T04:47:03;-0.40;75.90
14727;DHT22;7454;51.256;8.176;2022-11-20T04:49:29;-0.30;75.80
14727;DHT22;7454;51.256;8.176;2022-11-20T04:51:55;-0.30;75.90
14727;DHT22;7454;51.256;8.176;2022-11-20T04:54:20;-0.30;76.00
14727;DHT22;7454;51.256;8.176;2022-11-20T04:56:49;-0.20;76.00
14727;DHT22;7454;51.256;8.176;2022-11-20T04:59:15;-0.30;76.00
14727;DHT22;7454;51.256;8.176;2022-11-20T05:01:41;-0.20;76.00
14727;DHT22;7454;51.256;8.176;2022-11-20T05:04:06;-0.20;76.00
14727;DHT22;7454;51.256;8.176;2022-11-20T05:06:32;-0.20;76.10
14727;DHT22;7454;51.256;8.176;2022-11-20T05:08:58;-0.20;76.10
14727;DHT22;7454;51.256;8.176;2022-11-20T05:11:24;-0.20;76.10
14727;DHT22;7454;51.256;8.176;2022-11-20T05:13:50;-0.20;76.20
14727;DHT22;7454;51.256;8.176;2022-11-20T05:16:25;-0.20;76.20
14727;DHT22;7454;51.256;8.176;2022-11-20T05:18:52;-0.20;76.10
14727;DHT22;7454;51.256;8.176;2022-11-20T05:21:18;-0.20;76.20
14727;DHT22;7454;51.256;8.176;2022-11-20T05:23:44;-0.20;76.30
14727;DHT22;7454;51.256;8.176;2022-11-20T05:26:15;-0.30;76.10
14727;DHT22;7454;51.256;8.176;2022-11-20T05:28:42;-0.20;76.30
14727;DHT22;7454;51.256;8.176;2022-11-20T05:31:15;-0.20;76.30
14727;DHT22;7454;51.256;8.176;2022-11-20T05:33:43;-0.20;76.30
14727;DHT22;7454;51.256;8.176;2022-11-20T05:36:09;-0.20;76.40
14727;DHT22;7454;51.256;8.176;2022-11-20T05:38:36;-0.20;76.40
14727;DHT22;7454;51.256;8.176;2022-11-20T05:41:02;-0.20;76.30
14727;DHT22;7454;51.256;8.176;2022-11-20T05:43:31;-0.20;76.40
14727;DHT22;7454;51.256;8.176;2022-11-20T05:45:58;-0.10;76.40
14727;DHT22;7454;51.256;8.176;2022-11-20T05:48:24;-0.20;76.40
14727;DHT22;7454;51.256;8.176;2022-11-20T05:50:50;-0.20;76.40
14727;DHT22;7454;51.256;8.176;2022-11-20T05:53:15;-0.10;76.50
14727;DHT22;7454;51.256;8.176;2022-11-20T05:55:41;-0.10;76.40
14727;DHT22;7454;51.256;8.176;2022-11-20T05:58:07;0.00;76.40
14727;DHT22;7454;51.256;8.176;2022-11-20T06:00:32;0.00;76.40
14727;DHT22;7454;51.256;8.176;2022-11-20T06:02:58;-0.10;76.40
14727;DHT22;7454;51.256;8.176;2022-11-20T06:05:23;0.00;76.40
14727;DHT22;7454;51.256;8.176;2022-11-20T06:07:49;0.00;76.40
14727;DHT22;7454;51.256;8.176;2022-11-20T06:10:15;0.00;76.50
14727;DHT22;7454;51.256;8.176;2022-11-20T06:12:40;0.00;76.40
14727;DHT22;7454;51.256;8.176;2022-11-20T06:15:06;0.00;76.50
14727;DHT22;7454;51.256;8.176;2022-11-20T06:17:32;0.10;76.50
14727;DHT22;7454;51.256;8.176;2022-11-20T06:19:58;0.10;76.40
14727;DHT22;7454;51.256;8.176;2022-11-20T06:22:23;0.10;76.60
14727;DHT22;7454;51.256;8.176;2022-11-20T06:24:49;0.10;76.50
14727;DHT22;7454;51.256;8.176;2022-11-20T06:27:15;0.20;76.60
14727;DHT22;7454;51.256;8.176;2022-11-20T06:29:41;0.20;76.50
14727;DHT22;7454;51.256;8.176;2022-11-20T06:32:06;0.20;76.50
14727;DHT22;7454;51.256;8.176;2022-11-20T06:34:32;0.10;76.50
14727;DHT22;7454;51.256;8.176;2022-11-20T06:36:58;0.20;76.60
14727;DHT22;7454;51.256;8.176;2022-11-20T06:39:23;0.20;76.50
14727;DHT22;7454;51.256;8.176;2022-11-20T06:41:49;0.30;76.70
14727;DHT22;7454;51.256;8.176;2022-11-20T06:44:15;0.30;76.60
14727;DHT22;7454;51.256;8.176;2022-11-20T06:46:40;0.20;76.70
14727;DHT22;7454;51.256;8.176;2022-11-20T06:49:06;0.20;76.70
14727;DHT22;7454;51.256;8.176;2022-11-20T06:51:31;0.30;76.60
14727;DHT22;7454;51.256;8.176;2022-11-20T06:53:57;0.30;76.60
14727;DHT22;7454;51.256;8.176;2022-11-20T06:56:23;0.20;76.60
14727;DHT22;7454;51.256;8.176;2022-11-20T06:58:48;0.30;76.60
14727;DHT22;7454;51.256;8.176;2022-11-20T07:01:14;0.30;76.70
14727;DHT22;7454;51.256;8.176;2022-11-20T07:03:40;0.30;76.70
14727;DHT22;7454;51.256;8.176;2022-11-20T07:06:06;0.30;76.70
14727;DHT22;7454;51.256;8.176;2022-11-20T07:08:32;0.30;76.60
14727;DHT22;7454;51.256;8.176;2022-11-20T07:10:59;0.30;76.70
14727;DHT22;7454;51.256;8.176;2022-11-20T07:13:26;0.30;76.80
14727;DHT22;7454;51.256;8.176;2022-11-20T07:15:52;0.40;76.80
14727;DHT22;7454;51.256;8.176;2022-11-20T07:18:18;0.40;76.70
14727;DHT22;7454;51.256;8.176;2022-11-20T07:20:44;0.40;76.70
14727;DHT22;7454;51.256;8.176;2022-11-20T07:23:09;0.40;76.70
14727;DHT22;7454;51.256;8.176;2022-11-20T07:25:35;0.40;76.70
14727;DHT22;7454;51.256;8.176;2022-11-20T07:28:01;0.40;76.70
14727;DHT22;7454;51.256;8.176;2022-11-20T07:30:27;0.40;76.80
14727;DHT22;7454;51.256;8.176;2022-11-20T07:32:54;0.50;76.90
14727;DHT22;7454;51.256;8.176;2022-11-20T07:35:21;0.50;76.80
14727;DHT22;7454;51.256;8.176;2022-11-20T07:37:47;0.60;76.80
14727;DHT22;7454;51.256;8.176;2022-11-20T07:40:14;0.60;76.80
14727;DHT22;7454;51.256;8.176;2022-11-20T07:42:53;0.60;76.70
14727;DHT22;7454;51.256;8.176;2022-11-20T07:45:20;0.60;76.70
14727;DHT22;7454;51.256;8.176;2022-11-20T07:47:47;0.60;76.70
14727;DHT22;7454;51.256;8.176;2022-11-20T07:50:12;0.70;76.90
14727;DHT22;7454;51.256;8.176;2022-11-20T07:52:38;0.70;76.70
14727;DHT22;7454;51.256;8.176;2022-11-20T07:55:05;0.70;76.70
14727;DHT22;7454;51.256;8.176;2022-11-20T07:57:31;0.70;76.70
14727;DHT22;7454;51.256;8.176;2022-11-20T07:59:56;0.70;76.70
14727;DHT22;7454;51.256;8.176;2022-11-20T08:02:22;0.70;76.80
14727;DHT22;7454;51.256;8.176;2022-11-20T08:04:47;0.70;76.70
14727;DHT22;7454;51.256;8.176;2022-11-20T08:07:13;0.60;76.70
14727;DHT22;7454;51.256;8.176;2022-11-20T08:09:39;0.60;76.80
14727;DHT22;7454;51.256;8.176;2022-11-20T08:12:05;0.70;76.80
14727;DHT22;7454;51.256;8.176;2022-11-20T08:14:49;0.70;76.80
14727;DHT22;7454;51.256;8.176;2022-11-20T08:17:15;0.70;76.80
14727;DHT22;7454;51.256;8.176;2022-11-20T08:19:41;0.70;76.80
14727;DHT22;7454;51.256;8.176;2022-11-20T08:22:06;0.70;76.80
14727;DHT22;7454;51.256;8.176;2022-11-20T08:24:32;0.70;76.80
14727;DHT22;7454;51.256;8.176;2022-11-20T08:26:58;0.80;76.80
14727;DHT22;7454;51.256;8.176;2022-11-20T08:29:27;0.80;76.80
14727;DHT22;7454;51.256;8.176;2022-11-20T08:31:52;0.80;76.80
14727;DHT22;7454;51.256;8.176;2022-11-20T08:34:18;0.90;76.80
14727;DHT22;7454;51.256;8.176;2022-11-20T08:36:44;0.90;76.90
14727;DHT22;7454;51.256;8.176;2022-11-20T08:39:12;0.90;77.00
14727;DHT22;7454;51.256;8.176;2022-11-20T08:41:38;1.00;76.90
14727;DHT22;7454;51.256;8.176;2022-11-20T08:44:05;1.00;76.90
14727;DHT22;7454;51.256;8.176;2022-11-20T08:46:33;1.10;76.80
14727;DHT22;7454;51.256;8.176;2022-11-20T08:49:01;1.10;76.80
14727;DHT22;7454;51.256;8.176;2022-11-20T08:51:27;1.10;76.80
14727;DHT22;7454;51.256;8.176;2022-11-20T08:53:52;1.10;76.70
14727;DHT22;7454;51.256;8.176;2022-11-20T08:56:18;1.10;76.70
14727;DHT22;7454;51.256;8.176;2022-11-20T08:58:44;1.10;76.80
14727;DHT22;7454;51.256;8.176;2022-11-20T09:01:10;1.10;76.80
14727;DHT22;7454;51.256;8.176;2022-11-20T09:03:36;1.10;76.70
14727;DHT22;7454;51.256;8.176;2022-11-20T09:06:05;1.20;76.90
14727;DHT22;7454;51.256;8.176;2022-11-20T09:08:32;1.20;76.80
14727;DHT22;7454;51.256;8.176;2022-11-20T09:10:59;1.20;76.90
14727;DHT22;7454;51.256;8.176;2022-11-20T09:13:25;1.30;76.80
14727;DHT22;7454;51.256;8.176;2022-11-20T09:15:53;1.40;76.90
14727;DHT22;7454;51.256;8.176;2022-11-20T09:18:24;1.50;77.00
14727;DHT22;7454;51.256;8.176;2022-11-20T09:20:50;1.50;76.90
14727;DHT22;7454;51.256;8.176;2022-11-20T09:23:16;1.50;76.80
14727;DHT22;7454;51.256;8.176;2022-11-20T09:25:42;1.50;76.90
14727;DHT22;7454;51.256;8.176;2022-11-20T09:28:08;1.50;76.90
14727;DHT22;7454;51.256;8.176;2022-11-20T09:30:34;1.50;77.00
14727;DHT22;7454;51.256;8.176;2022-11-20T09:32:59;1.60;76.80
14727;DHT22;7454;51.256;8.176;2022-11-20T09:35:25;1.60;76.70
14727;DHT22;7454;51.256;8.176;2022-11-20T09:37:52;1.70;76.70
14727;DHT22;7454;51.256;8.176;2022-11-20T09:40:27;1.70;76.90
14727;DHT22;7454;51.256;8.176;2022-11-20T09:53:21;1.60;76.90
14727;DHT22;7454;51.256;8.176;2022-11-20T09:55:55;1.60;76.90
14727;DHT22;7454;51.256;8.176;2022-11-20T09:58:24;1.60;76.90
14727;DHT22;7454;51.256;8.176;2022-11-20T10:00:56;1.60;76.80
14727;DHT22;7454;51.256;8.176;2022-11-20T10:03:33;1.60;76.90
14727;DHT22;7454;51.256;8.176;2022-11-20T10:06:03;1.60;76.90
14727;DHT22;7454;51.256;8.176;2022-11-20T10:08:36;1.60;76.90
14727;DHT22;7454;51.256;8.176;2022-11-20T10:16:55;1.70;76.90
14727;DHT22;7454;51.256;8.176;2022-11-20T10:19:47;1.80;77.10
14727;DHT22;7454;51.256;8.176;2022-11-20T10:25:14;1.80;77.00
14727;DHT22;7454;51.256;8.176;2022-11-20T10:30:19;1.90;77.00
14727;DHT22;7454;51.256;8.176;2022-11-20T10:32:49;1.90;77.00
14727;DHT22;7454;51.256;8.176;2022-11-20T10:35:35;2.00;76.60
14727;DHT22;7454;51.256;8.176;2022-11-20T10:38:09;2.00;76.40
14727;DHT22;7454;51.256;8.176;2022-11-20T10:40:39;2.10;76.40
14727;DHT22;7454;51.256;8.176;2022-11-20T10:43:08;2.10;76.50
14727;DHT22;7454;51.256;8.176;2022-11-20T10:48:25;2.20;76.30
14727;DHT22;7454;51.256;8.176;2022-11-20T10:53:47;2.30;76.40
14727;DHT22;7454;51.256;8.176;2022-11-20T10:56:21;2.30;76.30
14727;DHT22;7454;51.256;8.176;2022-11-20T11:01:44;2.40;76.20
14727;DHT22;7454;51.256;8.176;2022-11-20T11:04:23;2.30;76.00
14727;DHT22;7454;51.256;8.176;2022-11-20T11:07:01;2.40;76.10
14727;DHT22;7454;51.256;8.176;2022-11-20T11:09:33;2.40;76.20
14727;DHT22;7454;51.256;8.176;2022-11-20T11:12:01;2.40;76.20
14727;DHT22;7454;51.256;8.176;2022-11-20T11:14:26;2.50;76.30
14727;DHT22;7454;51.256;8.176;2022-11-20T11:16:56;2.50;76.40
14727;DHT22;7454;51.256;8.176;2022-11-20T11:19:22;2.60;76.20
14727;DHT22;7454;51.256;8.176;2022-11-20T11:21:52;2.60;76.10
14727;DHT22;7454;51.256;8.176;2022-11-20T11:24:23;2.70;76.20
14727;DHT22;7454;51.256;8.176;2022-11-20T11:26:52;2.70;76.30
14727;DHT22;7454;51.256;8.176;2022-11-20T11:29:38;2.80;76.20
14727;DHT22;7454;51.256;8.176;2022-11-20T11:32:05;2.80;76.20
14727;DHT22;7454;51.256;8.176;2022-11-20T11:34:36;2.90;76.20
14727;DHT22;7454;51.256;8.176;2022-11-20T11:37:02;2.90;76.40
14727;DHT22;7454;51.256;8.176;2022-11-20T11:39:31;3.00;76.20
14727;DHT22;7454;51.256;8.176;2022-11-20T11:41:58;3.10;76.40
14727;DHT22;7454;51.256;8.176;2022-11-20T11:44:28;3.10;76.60
14727;DHT22;7454;51.256;8.176;2022-11-20T11:47:24;3.10;76.20
14727;DHT22;7454;51.256;8.176;2022-11-20T11:52:43;3.10;76.00
14727;DHT22;7454;51.256;8.176;2022-11-20T11:55:14;3.10;76.10
14727;DHT22;7454;51.256;8.176;2022-11-20T12:00:20;3.20;76.20
14727;DHT22;7454;51.256;8.176;2022-11-20T12:13:25;3.20;76.10
14727;DHT22;7454;51.256;8.176;2022-11-20T12:15:55;3.30;76.40
14727;DHT22;7454;51.256;8.176;2022-11-20T12:18:22;3.30;76.40
14727;DHT22;7454;51.256;8.176;2022-11-20T12:20:52;3.30;76.30
14727;DHT22;7454;51.256;8.176;2022-11-20T12:23:22;3.40;76.50
14727;DHT22;7454;51.256;8.176;2022-11-20T12:25:53;3.40;76.50
14727;DHT22;7454;51.256;8.176;2022-11-20T12:28:24;3.40;76.40
14727;DHT22;7454;51.256;8.176;2022-11-20T12:36:19;3.40;76.20
14727;DHT22;7454;51.256;8.176;2022-11-20T12:38:58;3.50;76.40
14727;DHT22;7454;51.256;8.176;2022-11-20T12:41:41;3.50;76.30
14727;DHT22;7454;51.256;8.176;2022-11-20T12:59:06;3.50;76.00
14727;DHT22;7454;51.256;8.176;2022-11-20T13:01:48;3.60;75.80
14727;DHT22;7454;51.256;8.176;2022-11-20T13:07:02;3.70;75.90
14727;DHT22;7454;51.256;8.176;2022-11-20T13:09:30;3.70;75.90
14727;DHT22;7454;51.256;8.176;2022-11-20T13:19:52;3.70;75.90
14727;DHT22;7454;51.256;8.176;2022-11-20T13:22:27;3.70;75.90
14727;DHT22;7454;51.256;8.176;2022-11-20T13:24:54;3.70;76.00
14727;DHT22;7454;51.256;8.176;2022-11-20T13:27:21;3.70;76.10
14727;DHT22;7454;51.256;8.176;2022-11-20T13:35:28;3.70;76.30
14727;DHT22;7454;51.256;8.176;2022-11-20T13:40:27;3.70;76.40
14727;DHT22;7454;51.256;8.176;2022-11-20T13:45:30;3.70;76.60
14727;DHT22;7454;51.256;8.176;2022-11-20T13:47:57;3.70;76.80
14727;DHT22;7454;51.256;8.176;2022-11-20T14:01:08;3.60;76.70
14727;DHT22;7454;51.256;8.176;2022-11-20T14:03:36;3.60;76.70
14727;DHT22;7454;51.256;8.176;2022-11-20T14:06:04;3.60;76.70
14727;DHT22;7454;51.256;8.176;2022-11-20T14:08:43;3.60;76.90
14727;DHT22;7454;51.256;8.176;2022-11-20T14:11:15;3.60;76.70
14727;DHT22;7454;51.256;8.176;2022-11-20T14:16:20;3.60;76.60
14727;DHT22;7454;51.256;8.176;2022-11-20T14:18:46;3.60;76.70
14727;DHT22;7454;51.256;8.176;2022-11-20T14:21:20;3.60;76.80
14727;DHT22;7454;51.256;8.176;2022-11-20T14:23:54;3.60;76.80
14727;DHT22;7454;51.256;8.176;2022-11-20T14:26:28;3.60;76.80
14727;DHT22;7454;51.256;8.176;2022-11-20T14:28:53;3.60;76.80
14727;DHT22;7454;51.256;8.176;2022-11-20T14:31:28;3.70;77.00
14727;DHT22;7454;51.256;8.176;2022-11-20T14:33:54;3.60;76.90
14727;DHT22;7454;51.256;8.176;2022-11-20T14:36:20;3.70;76.80
14727;DHT22;7454;51.256;8.176;2022-11-20T14:38:48;3.60;76.70
14727;DHT22;7454;51.256;8.176;2022-11-20T14:41:18;3.60;76.80
14727;DHT22;7454;51.256;8.176;2022-11-20T14:43:58;3.60;76.90
14727;DHT22;7454;51.256;8.176;2022-11-20T14:46:25;3.60;76.80
14727;DHT22;7454;51.256;8.176;2022-11-20T14:48:53;3.50;76.90
14727;DHT22;7454;51.256;8.176;2022-11-20T14:51:23;3.60;76.90
14727;DHT22;7454;51.256;8.176;2022-11-20T14:54:07;3.60;76.80
14727;DHT22;7454;51.256;8.176;2022-11-20T14:56:33;3.60;76.90
14727;DHT22;7454;51.256;8.176;2022-11-20T14:58:59;3.60;77.00
14727;DHT22;7454;51.256;8.176;2022-11-20T15:01:25;3.60;77.10
14727;DHT22;7454;51.256;8.176;2022-11-20T15:03:59;3.60;77.10
14727;DHT22;7454;51.256;8.176;2022-11-20T15:06:26;3.50;77.00
14727;DHT22;7454;51.256;8.176;2022-11-20T15:08:52;3.40;77.00
14727;DHT22;7454;51.256;8.176;2022-11-20T15:11:19;3.40;77.20
14727;DHT22;7454;51.256;8.176;2022-11-20T15:13:48;3.40;77.40
14727;DHT22;7454;51.256;8.176;2022-11-20T15:16:18;3.40;77.40
14727;DHT22;7454;51.256;8.176;2022-11-20T15:18:45;3.30;77.50
14727;DHT22;7454;51.256;8.176;2022-11-20T15:21:12;3.30;77.50
14727;DHT22;7454;51.256;8.176;2022-11-20T15:23:38;3.30;77.40
14727;DHT22;7454;51.256;8.176;2022-11-20T15:26:04;3.30;77.40
14727;DHT22;7454;51.256;8.176;2022-11-20T15:28:32;3.30;77.50
14727;DHT22;7454;51.256;8.176;2022-11-20T15:30:59;3.30;77.60
14727;DHT22;7454;51.256;8.176;2022-11-20T15:33:26;3.30;77.50
14727;DHT22;7454;51.256;8.176;2022-11-20T15:35:51;3.30;77.50
14727;DHT22;7454;51.256;8.176;2022-11-20T15:38:17;3.30;77.50
14727;DHT22;7454;51.256;8.176;2022-11-20T15:40:43;3.30;77.60
14727;DHT22;7454;51.256;8.176;2022-11-20T15:43:08;3.20;77.60
14727;DHT22;7454;51.256;8.176;2022-11-20T15:45:36;3.20;77.60
14727;DHT22;7454;51.256;8.176;2022-11-20T15:48:04;3.20;77.60
14727;DHT22;7454;51.256;8.176;2022-11-20T15:50:36;3.20;77.60
14727;DHT22;7454;51.256;8.176;2022-11-20T15:53:04;3.20;77.70
14727;DHT22;7454;51.256;8.176;2022-11-20T15:55:30;3.20;77.80
14727;DHT22;7454;51.256;8.176;2022-11-20T15:57:56;3.20;77.80
14727;DHT22;7454;51.256;8.176;2022-11-20T16:00:22;3.20;77.90
14727;DHT22;7454;51.256;8.176;2022-11-20T16:02:48;3.20;78.00
14727;DHT22;7454;51.256;8.176;2022-11-20T16:05:13;3.20;78.00
14727;DHT22;7454;51.256;8.176;2022-11-20T16:07:40;3.20;78.10
14727;DHT22;7454;51.256;8.176;2022-11-20T16:10:05;3.20;78.00
14727;DHT22;7454;51.256;8.176;2022-11-20T16:12:31;3.20;78.10
14727;DHT22;7454;51.256;8.176;2022-11-20T16:15:15;3.20;78.10
14727;DHT22;7454;51.256;8.176;2022-11-20T16:18:00;3.30;78.00
14727;DHT22;7454;51.256;8.176;2022-11-20T16:20:25;3.30;78.10
14727;DHT22;7454;51.256;8.176;2022-11-20T16:22:51;3.20;78.20
14727;DHT22;7454;51.256;8.176;2022-11-20T16:25:16;3.30;78.30
14727;DHT22;7454;51.256;8.176;2022-11-20T16:27:42;3.30;78.20
14727;DHT22;7454;51.256;8.176;2022-11-20T16:30:08;3.30;78.20
14727;DHT22;7454;51.256;8.176;2022-11-20T16:32:34;3.30;78.20
14727;DHT22;7454;51.256;8.176;2022-11-20T16:35:00;3.20;78.30
14727;DHT22;7454;51.256;8.176;2022-11-20T16:37:25;3.30;78.20
14727;DHT22;7454;51.256;8.176;2022-11-20T16:39:51;3.20;78.10
14727;DHT22;7454;51.256;8.176;2022-11-20T16:42:16;3.20;78.20
14727;DHT22;7454;51.256;8.176;2022-11-20T16:44:43;3.20;78.20
14727;DHT22;7454;51.256;8.176;2022-11-20T16:47:10;3.20;78.30
14727;DHT22;7454;51.256;8.176;2022-11-20T16:49:36;3.20;78.30
14727;DHT22;7454;51.256;8.176;2022-11-20T16:52:02;3.20;78.30
14727;DHT22;7454;51.256;8.176;2022-11-20T16:54:27;3.20;78.30
14727;DHT22;7454;51.256;8.176;2022-11-20T16:56:53;3.20;78.50
14727;DHT22;7454;51.256;8.176;2022-11-20T16:59:19;3.30;78.60
14727;DHT22;7454;51.256;8.176;2022-11-20T17:01:44;3.30;78.50
14727;DHT22;7454;51.256;8.176;2022-11-20T17:04:10;3.30;78.50
14727;DHT22;7454;51.256;8.176;2022-11-20T17:06:36;3.30;78.40
14727;DHT22;7454;51.256;8.176;2022-11-20T17:09:04;3.30;78.50
14727;DHT22;7454;51.256;8.176;2022-11-20T17:11:31;3.30;78.50
14727;DHT22;7454;51.256;8.176;2022-11-20T17:13:57;3.30;78.50
14727;DHT22;7454;51.256;8.176;2022-11-20T17:16:31;3.30;78.70
14727;DHT22;7454;51.256;8.176;2022-11-20T17:18:58;3.30;78.50
14727;DHT22;7454;51.256;8.176;2022-11-20T17:21:24;3.30;78.90
14727;DHT22;7454;51.256;8.176;2022-11-20T17:23:51;3.30;78.70
14727;DHT22;7454;51.256;8.176;2022-11-20T17:26:17;3.30;78.70
14727;DHT22;7454;51.256;8.176;2022-11-20T17:28:46;3.30;78.80
14727;DHT22;7454;51.256;8.176;2022-11-20T17:31:17;3.30;78.90
14727;DHT22;7454;51.256;8.176;2022-11-20T17:33:44;3.40;78.80
14727;DHT22;7454;51.256;8.176;2022-11-20T17:36:11;3.40;78.80
14727;DHT22;7454;51.256;8.176;2022-11-20T17:38:38;3.30;78.80
14727;DHT22;7454;51.256;8.176;2022-11-20T17:41:04;3.30;78.80
14727;DHT22;7454;51.256;8.176;2022-11-20T17:43:31;3.30;78.80
14727;DHT22;7454;51.256;8.176;2022-11-20T17:45:57;3.30;78.80